Date,TemperatureHighF,TemperatureAvgF,TemperatureLowF,DewpointHighF,DewpointAvgF,DewpointLowF,HumidityHigh,HumidityAvg,HumidityLow,PressureMaxIn,PressureMinIn,WindSpeedMaxMPH,WindSpeedAvgMPH,GustSpeedMaxMPH,PrecipitationSumIn
2014-1-1,6.1,3.1,-4.0,-4.4,-8.1,-14.6,67,58,51,30.35,30.16,15,6,15,0.00
2014-1-2,7.2,-2.9,-11.6,-7.2,-15.1,-22.7,65,55,42,30.42,30.25,8,4,9,0.00
2014-1-3,36.3,19.8,-1.8,29.2,10.4,-13.2,76,66,57,30.25,29.43,31,9,34,0.00
2014-1-4,41.4,17.5,6.8,33.7,6.9,-4.7,85,62,53,30.23,29.49,39,21,42,0.48
2014-1-5,11.5,4.2,-11.7,-4.7,-8.6,-32.0,58,55,34,30.46,29.59,30,22,30,0.48
2014-1-6,-5.6,-8.7,-13.5,-23.5,-26.5,-32.6,44,40,34,29.88,29.63,30,20,30,0.00
2014-1-7,-5.6,-5.6,-5.6,-23.5,-23.5,-23.5,40,40,40,29.64,29.45,21,21,21,0.00
2014-1-8,16.9,12.2,5.4,3.1,-2.0,-7.0,58,52,44,29.81,29.67,8,3,8,0.00
2014-1-9,33.1,23.3,8.1,22.7,13.2,-2.3,77,65,54,29.72,29.24,16,6,19,0.00
2014-1-10,34.5,30.0,16.5,28.8,24.5,10.3,85,80,74,29.24,28.95,16,4,21,0.00
2014-1-11,43.2,27.4,10.8,28.5,18.3,4.8,81,68,54,29.22,29.00,22,8,27,0.00
2014-1-12,46.2,40.4,29.1,33.9,28.4,20.6,70,62,53,29.07,28.82,29,8,29,0.00
2014-1-13,48.2,36.7,19.6,34.7,22.6,11.1,75,57,35,29.23,28.99,25,11,29,0.00
2014-1-14,46.0,27.3,11.1,34.4,13.3,0.2,69,55,41,29.65,28.98,44,27,49,0.57
2014-1-15,48.0,23.2,-2.0,29.2,9.1,-14.1,67,55,44,29.65,29.05,26,8,34,0.00
2014-1-16,45.1,26.2,10.8,25.4,12.1,-5.4,81,55,43,29.49,29.07,52,33,61,6.27
2014-1-17,33.1,17.7,6.4,14.7,-3.4,-10.8,54,39,24,29.56,29.11,33,11,35,0.00
2014-1-18,40.8,28.2,14.2,29.0,16.2,4.7,72,61,44,29.48,28.99,48,21,51,2.80
2014-1-19,62.4,39.8,14.0,28.8,21.3,5.1,75,51,22,29.37,29.03,39,12,39,0.00
2014-1-20,42.6,26.0,-2.9,30.9,15.6,-18.8,83,64,44,29.92,29.24,45,18,49,0.30
2014-1-21,23.5,6.1,-8.5,13.2,-12.8,-22.2,64,42,23,29.93,29.44,21,6,24,0.00
2014-1-22,24.4,11.4,-4.9,14.8,-2.5,-19.9,72,54,28,30.03,29.44,39,16,39,0.01
2014-1-23,15.1,1.6,-8.0,-10.6,-17.3,-26.4,53,41,23,30.20,29.69,22,11,22,0.00
2014-1-24,47.7,34.7,14.2,35.7,17.3,-14.3,74,49,25,29.68,29.07,42,19,42,0.11
2014-1-25,51.6,30.6,19.2,33.3,16.9,4.1,84,58,32,29.49,28.85,39,11,40,0.00
2014-1-26,51.8,31.0,1.0,34.4,16.3,-20.5,75,54,30,29.72,28.86,53,27,58,3.21
2014-1-27,6.8,-1.6,-11.7,-13.1,-20.3,-30.2,54,40,26,29.90,29.72,32,12,32,0.00
2014-1-28,16.0,-1.2,-15.5,-8.7,-20.7,-29.3,57,39,24,29.85,29.58,24,6,24,0.00
2014-1-29,50.2,22.0,-7.2,13.5,-1.6,-22.4,57,38,21,29.58,28.89,30,11,30,0.00
2014-1-30,40.8,24.1,9.1,28.6,9.9,-4.0,77,56,29,29.52,28.75,33,14,34,0.09
2014-1-31,27.9,14.8,5.7,4.7,-2.8,-7.4,56,46,27,29.57,29.35,13,3,14,0.00